createdAt,value
2018-02-27T00:01:07.457Z,56.10
2018-02-27T00:03:33.704Z,56.10
2018-02-27T00:05:59.911Z,56.30
2018-02-27T00:08:26.151Z,56.20
2018-02-27T00:10:52.373Z,55.50
2018-02-27T00:13:18.583Z,55.50
2018-02-27T00:15:44.827Z,55.60
2018-02-27T00:18:11.043Z,55.20
2018-02-27T00:20:37.256Z,55.90
2018-02-27T00:23:03.533Z,56.10
2018-02-27T00:25:29.714Z,56.30
2018-02-27T00:27:55.917Z,57.10
2018-02-27T00:30:22.417Z,56.80
2018-02-27T00:32:48.615Z,57.20
2018-02-27T00:35:14.823Z,57.20
2018-02-27T00:37:41.053Z,57.10
2018-02-27T00:40:07.285Z,57.10
2018-02-27T00:42:33.486Z,56.50
2018-02-27T00:44:59.771Z,56.80
2018-02-27T00:47:25.968Z,56.80
2018-02-27T00:49:52.187Z,57.10
2018-02-27T00:52:18.437Z,56.30
2018-02-27T00:54:44.643Z,56.30
2018-02-27T00:57:10.892Z,55.70
2018-02-27T00:59:37.136Z,55.50
2018-02-27T01:02:03.349Z,55.60
2018-02-27T01:04:29.536Z,55.90
2018-02-27T01:06:57.621Z,55.80
2018-02-27T01:09:23.841Z,55.50
2018-02-27T01:11:50.055Z,55.80
2018-02-27T01:14:16.291Z,55.70
2018-02-27T01:16:42.859Z,54.20
2018-02-27T01:19:09.082Z,54.20
2018-02-27T01:21:35.319Z,54.10
2018-02-27T01:24:01.559Z,54.40
2018-02-27T01:26:27.789Z,54.20
2018-02-27T01:28:54.053Z,54.00
2018-02-27T01:31:20.265Z,54.30
2018-02-27T01:33:46.507Z,53.70
2018-02-27T01:36:12.761Z,53.80
2018-02-27T01:38:38.996Z,53.40
2018-02-27T01:41:05.216Z,53.10
2018-02-27T01:43:31.445Z,53.70
2018-02-27T01:45:57.666Z,54.60
2018-02-27T01:48:23.904Z,54.00
2018-02-27T01:51:02.344Z,53.40
2018-02-27T01:53:28.554Z,53.90
2018-02-27T01:55:54.754Z,53.40
2018-02-27T01:58:21.351Z,54.20
2018-02-27T02:00:47.583Z,54.20
2018-02-27T02:03:13.789Z,54.50
2018-02-27T02:05:40.046Z,54.50
2018-02-27T02:08:06.262Z,53.80
2018-02-27T02:10:32.446Z,54.40
2018-02-27T02:12:58.715Z,54.10
2018-02-27T02:15:24.932Z,54.00
2018-02-27T02:17:51.185Z,53.90
2018-02-27T02:20:17.442Z,54.50
2018-02-27T02:22:44.046Z,54.70
2018-02-27T02:25:10.239Z,54.70
2018-02-27T02:27:36.471Z,55.50
2018-02-27T02:30:02.711Z,55.70
2018-02-27T02:32:28.901Z,55.10
2018-02-27T02:34:55.493Z,55.50
2018-02-27T02:37:21.742Z,55.50
2018-02-27T02:39:47.966Z,55.60
2018-02-27T02:42:29.452Z,55.50
2018-02-27T02:44:55.655Z,55.30
2018-02-27T02:47:21.897Z,55.70
2018-02-27T02:49:48.132Z,55.60
2018-02-27T02:52:14.336Z,55.00
2018-02-27T02:54:40.580Z,54.90
2018-02-27T02:57:06.847Z,54.60
2018-02-27T02:59:33.392Z,54.90
2018-02-27T03:01:59.601Z,54.90
2018-02-27T03:04:26.729Z,56.30
2018-02-27T03:06:52.956Z,56.30
2018-02-27T03:09:19.178Z,56.50
2018-02-27T03:11:45.446Z,56.90
2018-02-27T03:14:11.683Z,57.40
2018-02-27T03:16:37.907Z,58.10
2018-02-27T03:19:04.172Z,57.50
2018-02-27T03:21:30.395Z,56.90
2018-02-27T03:23:56.592Z,56.40
2018-02-27T03:26:22.853Z,57.30
2018-02-27T03:28:49.081Z,57.20
2018-02-27T03:31:15.288Z,57.30
2018-02-27T03:33:41.521Z,56.60
2018-02-27T03:36:07.747Z,56.30
2018-02-27T03:38:33.994Z,56.20
2018-02-27T03:41:00.196Z,56.10
2018-02-27T03:43:26.433Z,56.10
2018-02-27T03:45:52.683Z,56.10
2018-02-27T03:48:18.917Z,56.40
2018-02-27T03:50:45.409Z,55.60
2018-02-27T03:53:11.620Z,55.40
2018-02-27T03:55:37.868Z,55.70
2018-02-27T03:58:04.071Z,56.00
2018-02-27T04:00:30.636Z,56.10
2018-02-27T04:02:56.894Z,56.10
2018-02-27T04:05:23.130Z,56.40
2018-02-27T04:07:49.344Z,56.60
2018-02-27T04:10:15.519Z,56.40
2018-02-27T04:12:42.554Z,55.80
2018-02-27T04:15:09.132Z,55.80
2018-02-27T04:17:35.344Z,55.80
2018-02-27T04:20:01.599Z,56.10
2018-02-27T04:22:27.818Z,55.80
2018-02-27T04:24:54.055Z,55.20
2018-02-27T04:27:20.291Z,55.50
2018-02-27T04:29:46.503Z,56.00
2018-02-27T04:32:12.735Z,56.60
2018-02-27T04:34:38.980Z,57.10
2018-02-27T04:37:05.224Z,57.70
2018-02-27T04:39:31.451Z,57.10
2018-02-27T04:41:57.681Z,57.00
2018-02-27T04:44:23.866Z,57.40
2018-02-27T04:46:50.127Z,56.80
2018-02-27T04:49:16.324Z,57.20
2018-02-27T04:51:42.560Z,57.50
2018-02-27T04:54:08.746Z,57.40
2018-02-27T04:56:34.958Z,57.00
2018-02-27T04:59:02.156Z,57.80
2018-02-27T05:01:28.378Z,57.40
2018-02-27T05:03:54.614Z,57.40
2018-02-27T05:06:20.837Z,58.10
2018-02-27T05:08:47.071Z,57.60
2018-02-27T05:11:13.285Z,58.30
2018-02-27T05:13:39.511Z,58.40
2018-02-27T05:16:05.729Z,58.20
2018-02-27T05:18:31.967Z,58.40
2018-02-27T05:20:58.200Z,58.40
2018-02-27T05:23:24.406Z,57.30
2018-02-27T05:25:51.010Z,57.30
2018-02-27T05:28:17.224Z,57.20
2018-02-27T05:30:43.412Z,57.80
2018-02-27T05:33:09.643Z,57.80
2018-02-27T05:35:35.879Z,57.30
2018-02-27T05:38:02.086Z,57.70
2018-02-27T05:40:28.303Z,57.20
2018-02-27T05:42:54.504Z,57.20
2018-02-27T05:45:20.725Z,58.40
2018-02-27T05:47:46.948Z,58.40
2018-02-27T05:50:13.159Z,58.10
2018-02-27T05:52:39.426Z,57.70
2018-02-27T05:55:05.616Z,58.00
2018-02-27T05:57:31.848Z,58.60
2018-02-27T05:59:58.077Z,58.20
2018-02-27T06:02:24.282Z,57.90
2018-02-27T06:04:50.513Z,57.80
2018-02-27T06:07:16.731Z,57.90
2018-02-27T06:09:42.996Z,58.00
2018-02-27T06:12:09.211Z,57.10
2018-02-27T06:14:35.437Z,56.70
2018-02-27T06:17:01.655Z,56.40
2018-02-27T06:19:27.855Z,56.50
2018-02-27T06:21:54.440Z,56.40
2018-02-27T06:24:20.686Z,56.40
2018-02-27T06:26:46.896Z,56.80
2018-02-27T06:29:13.127Z,56.70
2018-02-27T06:31:39.315Z,57.10
2018-02-27T06:34:05.547Z,57.10
2018-02-27T06:36:31.770Z,57.10
2018-02-27T06:38:57.968Z,56.80
2018-02-27T06:41:24.165Z,56.70
2018-02-27T06:43:50.410Z,57.30
2018-02-27T06:46:16.612Z,57.40
2018-02-27T06:48:42.794Z,57.40
2018-02-27T06:51:09.813Z,57.20
2018-02-27T06:53:36.044Z,57.20
2018-02-27T06:56:02.260Z,57.70
2018-02-27T06:58:28.476Z,57.70
2018-02-27T07:00:54.681Z,57.70
2018-02-27T07:03:20.925Z,57.50
2018-02-27T07:05:47.419Z,57.90
2018-02-27T07:08:13.599Z,58.10
2018-02-27T07:10:39.803Z,57.70
2018-02-27T07:13:06.082Z,57.50
2018-02-27T07:15:32.635Z,57.10
2018-02-27T07:17:58.852Z,57.10
2018-02-27T07:20:25.340Z,56.90
2018-02-27T07:22:51.580Z,57.20
2018-02-27T07:25:17.803Z,57.40
2018-02-27T07:27:44.031Z,56.50
2018-02-27T07:30:10.282Z,55.90
2018-02-27T07:32:36.506Z,56.20
2018-02-27T07:35:02.734Z,55.50
2018-02-27T07:40:01.821Z,54.80
2018-02-27T07:42:28.072Z,54.00
2018-02-27T07:44:54.347Z,54.10
2018-02-27T07:47:20.557Z,53.80
2018-02-27T07:49:47.273Z,53.50
2018-02-27T07:52:13.511Z,53.40
2018-02-27T07:54:40.154Z,53.10
2018-02-27T07:57:06.761Z,54.30
2018-02-27T07:59:32.977Z,54.30
2018-02-27T08:01:59.245Z,53.10
2018-02-27T08:04:25.857Z,53.20
2018-02-27T08:06:52.067Z,53.20
2018-02-27T08:09:18.332Z,52.50
2018-02-27T08:11:44.565Z,52.60
2018-02-27T08:14:11.613Z,52.20
2018-02-27T08:16:38.205Z,51.90
2018-02-27T08:19:04.413Z,51.90
2018-02-27T08:21:30.639Z,51.90
2018-02-27T08:23:56.868Z,51.70
2018-02-27T08:26:23.096Z,51.50
2018-02-27T08:28:49.324Z,51.00
2018-02-27T08:31:15.521Z,51.10
2018-02-27T08:33:42.137Z,51.20
2018-02-27T08:36:08.350Z,51.20
2018-02-27T08:38:34.575Z,51.80
2018-02-27T08:41:00.779Z,51.50
2018-02-27T08:43:27.017Z,51.30
2018-02-27T08:45:53.253Z,51.10
2018-02-27T08:48:19.443Z,50.60
2018-02-27T08:50:45.684Z,50.20
2018-02-27T08:53:12.277Z,50.20
2018-02-27T08:55:38.537Z,49.70
2018-02-27T08:58:04.788Z,49.20
2018-02-27T09:00:31.286Z,48.70
2018-02-27T09:02:57.860Z,49.80
2018-02-27T09:05:24.065Z,49.80
2018-02-27T09:07:50.286Z,49.40
2018-02-27T09:10:16.487Z,49.10
2018-02-27T09:12:43.047Z,49.30
2018-02-27T09:15:09.272Z,49.30
2018-02-27T09:17:35.829Z,48.40
2018-02-27T09:20:02.030Z,48.40
2018-02-27T09:22:28.617Z,47.00
2018-02-27T09:24:54.889Z,47.00
2018-02-27T09:27:21.460Z,48.20
2018-02-27T09:29:47.696Z,48.30
2018-02-27T09:32:13.932Z,48.10
2018-02-27T09:34:40.115Z,47.10
2018-02-27T09:37:06.310Z,47.10
2018-02-27T09:39:32.536Z,47.40
2018-02-27T09:41:58.769Z,47.30
2018-02-27T09:44:25.295Z,46.10
2018-02-27T09:46:51.489Z,46.80
2018-02-27T09:49:17.698Z,47.20
2018-02-27T09:51:43.974Z,46.90
2018-02-27T09:54:10.177Z,45.70
2018-02-27T09:56:36.422Z,46.80
2018-02-27T09:59:02.634Z,45.60
2018-02-27T10:01:28.980Z,44.20
2018-02-27T10:03:55.198Z,43.90
2018-02-27T10:06:21.425Z,44.40
2018-02-27T10:08:47.622Z,44.60
2018-02-27T10:11:13.821Z,43.70
2018-02-27T10:13:40.125Z,43.10
2018-02-27T10:16:06.310Z,42.90
2018-02-27T10:18:32.515Z,43.70
2018-02-27T10:20:59.179Z,41.20
2018-02-27T10:23:25.434Z,41.20
2018-02-27T10:25:51.670Z,39.60
2018-02-27T10:28:17.913Z,39.40
2018-02-27T10:30:44.128Z,38.90
2018-02-27T10:33:10.387Z,37.90
2018-02-27T10:35:36.887Z,36.20
2018-02-27T10:38:03.088Z,34.40
2018-02-27T10:40:29.324Z,34.00
2018-02-27T10:42:55.566Z,32.90
2018-02-27T10:45:21.806Z,30.50
2018-02-27T10:47:48.031Z,30.40
2018-02-27T10:50:14.247Z,29.30
2018-02-27T10:52:40.475Z,27.90
2018-02-27T10:55:06.706Z,26.00
2018-02-27T10:57:32.996Z,25.50
2018-02-27T10:59:59.260Z,27.10
2018-02-27T11:02:25.539Z,28.40
2018-02-27T11:04:51.738Z,27.50
2018-02-27T11:07:17.998Z,27.50
2018-02-27T11:09:44.211Z,24.90
2018-02-27T11:12:10.420Z,24.30
2018-02-27T11:14:36.665Z,22.30
2018-02-27T11:17:02.852Z,21.90
2018-02-27T11:19:29.083Z,22.60
2018-02-27T11:21:55.315Z,23.00
2018-02-27T11:24:21.530Z,23.10
2018-02-27T11:26:47.726Z,21.10
2018-02-27T11:29:14.297Z,23.70
2018-02-27T11:31:40.536Z,23.70
2018-02-27T11:34:06.779Z,26.60
2018-02-27T11:36:32.972Z,26.20
2018-02-27T11:38:59.486Z,27.80
2018-02-27T11:41:26.472Z,27.20
2018-02-27T11:43:52.686Z,24.10
2018-02-27T11:46:18.927Z,24.10
2018-02-27T11:48:45.137Z,24.40
2018-02-27T11:51:11.343Z,23.30
2018-02-27T11:53:37.558Z,21.40
2018-02-27T11:56:03.806Z,24.20
2018-02-27T11:58:30.041Z,25.40
2018-02-27T12:00:56.272Z,23.70
2018-02-27T12:03:22.951Z,21.80
2018-02-27T12:05:49.776Z,20.90
2018-02-27T12:08:16.040Z,19.40
2018-02-27T12:10:43.168Z,20.90
2018-02-27T12:13:09.977Z,22.30
2018-02-27T12:15:36.171Z,21.70
2018-02-27T12:18:03.188Z,22.50
2018-02-27T12:20:29.397Z,22.50
2018-02-27T12:22:55.615Z,23.10
2018-02-27T12:25:21.863Z,23.00
2018-02-27T12:27:48.089Z,24.60
2018-02-27T12:30:14.331Z,25.10
2018-02-27T12:32:40.963Z,24.30
2018-02-27T12:35:07.173Z,21.60
2018-02-27T12:37:34.084Z,21.00
2018-02-27T12:40:00.394Z,20.40
2018-02-27T12:42:27.069Z,18.50
2018-02-27T12:44:53.296Z,18.60
2018-02-27T12:47:19.837Z,19.90
2018-02-27T12:49:46.107Z,20.50
2018-02-27T12:52:12.327Z,22.20
2018-02-27T12:54:38.596Z,24.50
2018-02-27T12:57:04.865Z,26.10
2018-02-27T12:59:31.124Z,26.90
2018-02-27T13:01:57.410Z,26.70
2018-02-27T13:04:23.605Z,26.80
2018-02-27T13:06:49.840Z,26.60
2018-02-27T13:09:16.093Z,24.60
2018-02-27T13:11:42.375Z,23.40
2018-02-27T13:14:08.585Z,23.60
2018-02-27T13:16:34.867Z,23.70
2018-02-27T13:19:01.094Z,23.20
2018-02-27T13:21:27.340Z,25.00
2018-02-27T13:23:53.620Z,25.60
2018-02-27T13:26:20.271Z,26.60
2018-02-27T13:28:46.502Z,26.60
2018-02-27T13:31:19.648Z,27.10
2018-02-27T13:33:45.930Z,28.10
2018-02-27T13:36:12.346Z,28.90
2018-02-27T13:38:38.566Z,29.00
2018-02-27T13:41:05.193Z,31.30
2018-02-27T13:43:31.797Z,32.00
2018-02-27T13:45:58.008Z,32.00
2018-02-27T13:48:24.499Z,33.00
2018-02-27T13:50:51.118Z,31.60
2018-02-27T13:53:18.207Z,31.60
2018-02-27T13:55:44.478Z,31.00
2018-02-27T13:58:10.704Z,31.20
2018-02-27T14:00:36.915Z,31.10
2018-02-27T14:03:03.203Z,30.40
2018-02-27T14:05:29.826Z,32.40
2018-02-27T14:07:56.050Z,32.40
2018-02-27T14:10:22.298Z,32.30
2018-02-27T14:12:48.942Z,33.60
2018-02-27T14:15:15.597Z,33.50
2018-02-27T14:17:41.810Z,33.50
2018-02-27T14:20:08.441Z,34.80
2018-02-27T14:22:35.073Z,35.50
2018-02-27T14:25:01.745Z,34.40
2018-02-27T14:27:28.008Z,34.40
2018-02-27T14:29:54.255Z,34.50
2018-02-27T14:32:20.487Z,33.00
2018-02-27T14:34:46.708Z,34.10
2018-02-27T14:37:12.964Z,33.90
2018-02-27T14:39:39.733Z,34.70
2018-02-27T14:42:05.961Z,34.50
2018-02-27T14:44:32.212Z,35.40
2018-02-27T14:46:58.448Z,35.40
2018-02-27T14:49:25.484Z,35.50
2018-02-27T14:51:51.734Z,36.60
2018-02-27T14:54:17.969Z,36.40
2018-02-27T14:56:44.182Z,36.50
2018-02-27T14:59:10.440Z,36.80
2018-02-27T15:01:36.732Z,36.80
2018-02-27T15:04:02.970Z,37.40
2018-02-27T15:06:29.218Z,36.20
2018-02-27T15:08:55.820Z,35.80
2018-02-27T15:11:22.078Z,35.80
2018-02-27T15:13:48.336Z,37.50
2018-02-27T15:16:14.609Z,37.90
2018-02-27T15:18:40.825Z,38.10
2018-02-27T15:21:07.088Z,38.70
2018-02-27T15:23:33.316Z,38.50
2018-02-27T15:25:59.593Z,38.60
2018-02-27T15:28:25.840Z,38.90
2018-02-27T15:30:52.103Z,39.30
2018-02-27T15:33:18.341Z,39.50
2018-02-27T15:35:44.957Z,39.80
2018-02-27T15:38:11.205Z,39.80
2018-02-27T15:40:37.799Z,39.70
2018-02-27T15:43:04.084Z,39.70
2018-02-27T15:45:30.374Z,39.40
2018-02-27T15:47:56.599Z,40.30
2018-02-27T15:50:22.824Z,40.20
2018-02-27T15:52:49.125Z,40.90
2018-02-27T15:55:15.395Z,41.60
2018-02-27T15:57:41.647Z,42.40
2018-02-27T16:00:08.297Z,43.10
2018-02-27T16:02:34.917Z,43.50
2018-02-27T16:05:01.528Z,44.20
2018-02-27T16:07:28.172Z,44.20
2018-02-27T16:09:54.434Z,43.10
2018-02-27T16:12:21.062Z,43.10
2018-02-27T16:14:47.695Z,43.40
2018-02-27T16:17:13.908Z,43.40
2018-02-27T16:19:40.136Z,43.90
2018-02-27T16:22:06.720Z,43.90
2018-02-27T16:24:32.971Z,44.00
2018-02-27T16:26:59.235Z,44.70
2018-02-27T16:29:26.012Z,44.70
2018-02-27T16:31:52.251Z,44.70
2018-02-27T16:34:18.501Z,45.60
2018-02-27T16:36:44.776Z,45.60
2018-02-27T16:39:11.361Z,46.10
2018-02-27T16:41:37.600Z,46.10
2018-02-27T16:44:03.880Z,45.80
2018-02-27T16:46:30.114Z,46.30
2018-02-27T16:48:56.380Z,46.60
2018-02-27T16:51:22.615Z,47.60
2018-02-27T16:53:48.817Z,47.10
2018-02-27T16:56:15.029Z,47.60
2018-02-27T16:58:41.250Z,48.40
2018-02-27T17:01:07.466Z,48.70
2018-02-27T17:03:34.119Z,49.50
2018-02-27T17:06:00.370Z,49.40
2018-02-27T17:08:26.578Z,48.80
2018-02-27T17:10:53.000Z,49.20
2018-02-27T17:13:19.511Z,48.50
2018-02-27T17:15:45.741Z,49.50
2018-02-27T17:18:11.976Z,50.10
2018-02-27T17:20:38.231Z,50.10
2018-02-27T17:23:04.434Z,49.80
2018-02-27T17:25:31.026Z,48.60
2018-02-27T17:27:57.266Z,48.60
2018-02-27T17:30:23.554Z,49.00
2018-02-27T17:32:49.899Z,50.30
2018-02-27T17:35:16.163Z,50.30
2018-02-27T17:37:42.410Z,50.30
2018-02-27T17:40:08.599Z,50.50
2018-02-27T17:42:35.518Z,50.60
2018-02-27T17:45:01.829Z,50.50
2018-02-27T17:47:28.468Z,51.00
2018-02-27T17:49:55.096Z,51.10
2018-02-27T17:52:21.725Z,51.00
2018-02-27T17:54:48.367Z,50.20
2018-02-27T17:57:15.015Z,49.70
2018-02-27T17:59:49.043Z,51.10
2018-02-27T18:02:15.284Z,51.10
2018-02-27T18:04:41.568Z,50.30
2018-02-27T18:07:07.843Z,50.50
2018-02-27T18:09:34.072Z,50.00
2018-02-27T18:12:00.337Z,49.90
2018-02-27T18:14:26.566Z,49.50
2018-02-27T18:16:52.760Z,49.90
2018-02-27T18:19:19.032Z,48.80
2018-02-27T18:21:45.246Z,49.90
2018-02-27T18:24:11.448Z,50.60
2018-02-27T18:26:37.714Z,49.70
2018-02-27T18:29:03.948Z,49.70
2018-02-27T18:31:30.179Z,49.50
2018-02-27T18:33:56.839Z,48.70
2018-02-27T18:36:23.184Z,47.70
2018-02-27T18:38:49.473Z,48.80
2018-02-27T18:41:15.812Z,48.40
2018-02-27T18:43:42.625Z,49.70
2018-02-27T18:46:08.922Z,49.70
2018-02-27T18:48:35.535Z,49.60
2018-02-27T18:51:01.860Z,50.60
2018-02-27T18:53:28.139Z,51.20
2018-02-27T18:55:54.460Z,51.50
2018-02-27T18:58:20.777Z,52.40
2018-02-27T19:00:47.217Z,52.60
2018-02-27T19:03:13.593Z,53.20
2018-02-27T19:05:40.025Z,52.80
2018-02-27T19:08:06.389Z,53.50
2018-02-27T19:10:32.728Z,54.40
2018-02-27T19:12:59.045Z,54.30
2018-02-27T19:15:25.851Z,54.60
2018-02-27T19:17:52.246Z,54.60
2018-02-27T19:20:18.569Z,54.90
2018-02-27T19:22:44.902Z,54.40
2018-02-27T19:25:11.253Z,54.40
2018-02-27T19:27:37.878Z,54.80
2018-02-27T19:30:04.256Z,54.60
2018-02-27T19:32:31.038Z,54.80
2018-02-27T19:34:57.337Z,54.80
2018-02-27T19:37:24.271Z,55.30
2018-02-27T19:39:50.626Z,55.10
2018-02-27T19:42:16.999Z,55.60
2018-02-27T19:44:43.277Z,56.20
2018-02-27T19:47:09.621Z,56.20
2018-02-27T19:49:35.919Z,56.20
2018-02-27T19:52:02.197Z,56.40
2018-02-27T19:54:28.480Z,56.40
2018-02-27T19:56:54.830Z,56.90
2018-02-27T19:59:21.609Z,57.00
2018-02-27T20:01:48.911Z,57.00
2018-02-27T20:04:15.628Z,57.00
2018-02-27T20:06:42.067Z,57.00
2018-02-27T20:09:08.353Z,57.10
2018-02-27T20:11:34.744Z,57.10
2018-02-27T20:14:01.165Z,57.20
2018-02-27T20:16:27.419Z,57.40
2018-02-27T20:18:53.840Z,57.80
2018-02-27T20:21:21.176Z,58.30
2018-02-27T20:23:54.149Z,58.00
2018-02-27T20:26:20.921Z,58.30
2018-02-27T20:28:53.652Z,58.30
2018-02-27T20:31:20.082Z,58.90
2018-02-27T20:33:46.525Z,58.70
2018-02-27T20:36:12.864Z,58.40
2018-02-27T20:38:45.352Z,57.80
2018-02-27T20:41:11.686Z,57.20
2018-02-27T20:43:38.756Z,56.60
2018-02-27T20:46:05.157Z,57.00
2018-02-27T20:48:31.533Z,57.20
2018-02-27T20:50:57.894Z,56.70
2018-02-27T20:53:24.249Z,56.40
2018-02-27T20:55:50.606Z,56.80
2018-02-27T20:58:17.790Z,58.20
2018-02-27T21:00:44.131Z,58.20
2018-02-27T21:03:10.517Z,57.90
2018-02-27T21:05:37.199Z,58.80
2018-02-27T21:08:03.682Z,58.80
2018-02-27T21:10:30.214Z,59.30
2018-02-27T21:12:56.464Z,59.70
2018-02-27T21:15:22.804Z,59.50
2018-02-27T21:17:49.068Z,59.60
2018-02-27T21:20:15.340Z,59.80
2018-02-27T21:22:41.591Z,60.70
2018-02-27T21:25:07.873Z,61.00
2018-02-27T21:27:34.103Z,61.60
2018-02-27T21:30:00.362Z,61.50
2018-02-27T21:32:26.939Z,61.80
2018-02-27T21:34:53.213Z,61.80
2018-02-27T21:37:19.812Z,62.10
2018-02-27T21:39:46.094Z,62.10
2018-02-27T21:42:12.680Z,61.80
2018-02-27T21:44:38.994Z,61.80
2018-02-27T21:47:05.298Z,61.70
2018-02-27T21:49:31.540Z,62.00
2018-02-27T21:51:57.739Z,61.40
2018-02-27T21:54:23.979Z,61.10
2018-02-27T21:56:50.170Z,61.20
2018-02-27T21:59:16.423Z,61.20
2018-02-27T22:01:43.046Z,61.20
2018-02-27T22:04:09.308Z,61.20
2018-02-27T22:06:35.600Z,61.70
2018-02-27T22:09:01.862Z,62.30
2018-02-27T22:11:28.087Z,62.50
2018-02-27T22:13:55.112Z,62.90
2018-02-27T22:16:21.727Z,63.10
2018-02-27T22:18:47.991Z,63.10
2018-02-27T22:21:14.239Z,62.90
2018-02-27T22:23:40.452Z,62.90
2018-02-27T22:26:07.061Z,63.60
2018-02-27T22:28:33.261Z,63.60
2018-02-27T22:30:59.486Z,63.60
2018-02-27T22:33:26.360Z,63.70
2018-02-27T22:35:52.610Z,64.10
2018-02-27T22:38:19.193Z,63.80
2018-02-27T22:40:45.431Z,63.80
2018-02-27T22:43:11.611Z,64.10
2018-02-27T22:45:37.860Z,64.20
2018-02-27T22:48:04.401Z,63.90
2018-02-27T22:50:30.598Z,63.50
2018-02-27T22:52:56.811Z,63.20
2018-02-27T22:55:23.428Z,62.60
2018-02-27T22:57:49.658Z,62.60
2018-02-27T23:00:28.101Z,62.60
2018-02-27T23:02:54.681Z,62.20
2018-02-27T23:05:20.899Z,62.20
2018-02-27T23:07:47.155Z,62.00
2018-02-27T23:10:13.398Z,62.10
2018-02-27T23:12:39.931Z,61.90
2018-02-27T23:15:06.142Z,61.60
2018-02-27T23:17:32.368Z,61.40
2018-02-27T23:19:58.583Z,61.50
2018-02-27T23:22:24.798Z,61.80
2018-02-27T23:24:56.655Z,62.10
2018-02-27T23:27:25.075Z,61.50
2018-02-27T23:29:53.440Z,61.30
2018-02-27T23:32:21.982Z,61.20
2018-02-27T23:35:00.864Z,60.90
2018-02-27T23:37:27.079Z,60.60
2018-02-27T23:39:53.308Z,59.80
2018-02-27T23:42:19.541Z,59.30
2018-02-27T23:44:45.739Z,58.60
2018-02-27T23:47:11.972Z,59.20
2018-02-27T23:49:38.740Z,59.60
2018-02-27T23:52:04.974Z,59.30
2018-02-27T23:54:31.167Z,59.00
2018-02-27T23:56:57.653Z,58.50
2018-02-27T23:59:24.277Z,57.90
